createdAt,value
2023-02-11T00:01:33.278Z,99860.13
2023-02-11T00:04:01.974Z,99862.84
2023-02-11T00:06:31.651Z,99852.94
2023-02-11T00:09:00.434Z,99857.47
2023-02-11T00:11:30.474Z,99854.78
2023-02-11T00:13:59.586Z,99851.25
2023-02-11T00:16:29.848Z,99847.44
2023-02-11T00:19:00.263Z,99848.44
2023-02-11T00:21:29.018Z,99850.25
2023-02-11T00:23:59.807Z,99839.50
2023-02-11T00:26:30.772Z,99841.34
2023-02-11T00:28:59.448Z,99852.09
2023-02-11T00:31:29.661Z,99843.19
2023-02-11T00:33:58.729Z,99835.13
2023-02-11T00:36:28.805Z,99829.75
2023-02-11T00:38:57.998Z,99819.00
2023-02-11T00:41:27.643Z,99812.78
2023-02-11T00:43:56.244Z,99810.09
2023-02-11T00:46:25.008Z,99826.22
2023-02-11T00:48:57.819Z,99820.69
2023-02-11T00:51:26.735Z,99814.47
2023-02-11T00:53:55.398Z,99807.41
2023-02-11T00:56:23.916Z,99791.28
2023-02-11T00:58:53.443Z,99789.56
2023-02-11T01:01:22.809Z,99777.03
2023-02-11T01:03:51.477Z,99766.28
2023-02-11T01:06:22.044Z,99760.91
2023-02-11T01:08:50.943Z,99752.84
2023-02-11T01:11:21.558Z,99755.66
2023-02-11T01:13:50.635Z,99744.78
2023-02-11T01:16:19.621Z,99734.88
2023-02-11T01:18:48.181Z,99720.59
2023-02-11T01:21:16.740Z,99708.97
2023-02-11T01:23:46.768Z,99723.28
2023-02-11T01:26:15.438Z,99720.59
2023-02-11T01:28:43.981Z,99722.41
2023-02-11T01:31:12.865Z,99735.84
2023-02-11T01:33:41.582Z,99747.47
2023-02-11T01:36:10.548Z,99752.84
2023-02-11T01:38:41.322Z,99743.06
2023-02-11T01:41:13.591Z,99734.03
2023-02-11T01:43:46.131Z,99725.97
2023-02-11T01:46:25.170Z,99715.34
2023-02-11T01:48:56.404Z,99714.34
2023-02-11T01:51:29.735Z,99721.56
2023-02-11T01:54:30.146Z,99715.34
2023-02-11T01:57:17.721Z,99719.72
2023-02-11T01:59:50.038Z,99708.97
2023-02-11T02:02:21.120Z,99724.97
2023-02-11T02:04:54.475Z,99717.91
2023-02-11T02:07:34.998Z,99713.50
2023-02-11T02:10:08.364Z,99705.44
2023-02-11T02:12:38.250Z,99698.22
2023-02-11T02:15:30.026Z,99697.38
2023-02-11T02:18:15.296Z,99689.22
2023-02-11T02:21:29.225Z,99676.75
2023-02-11T02:24:14.572Z,99668.00
2023-02-11T02:27:06.570Z,99654.41
2023-02-11T02:30:16.893Z,99642.81
2023-02-11T02:33:34.418Z,99632.91
2023-02-11T02:36:14.442Z,99625.88
2023-02-11T02:38:50.037Z,99613.28
2023-02-11T02:41:20.099Z,99620.50
2023-02-11T02:43:51.426Z,99625.88
2023-02-11T02:46:22.639Z,99615.13
2023-02-11T02:48:53.700Z,99607.91
2023-02-11T02:51:57.968Z,99588.25
2023-02-11T02:55:07.075Z,99590.94
2023-02-11T02:57:40.700Z,99577.63
2023-02-11T03:00:23.695Z,99577.50
2023-02-11T03:03:03.961Z,99562.25
2023-02-11T03:05:40.746Z,99571.31
2023-02-11T03:08:11.204Z,99577.50
2023-02-11T03:10:42.500Z,99571.13
2023-02-11T03:13:11.231Z,99579.19
2023-02-11T03:15:42.595Z,99583.72
2023-02-11T03:18:14.278Z,99581.88
2023-02-11T03:20:45.864Z,99588.25
2023-02-11T03:23:16.729Z,99590.09
2023-02-11T03:25:51.792Z,99587.41
2023-02-11T03:28:25.450Z,99588.25
2023-02-11T03:30:57.586Z,99576.66
2023-02-11T03:33:28.762Z,99575.84
2023-02-11T03:36:01.613Z,99572.28
2023-02-11T03:38:32.975Z,99567.78
2023-02-11T03:41:01.966Z,99568.75
2023-02-11T03:43:34.286Z,99561.53
2023-02-11T03:46:03.784Z,99558.00
2023-02-11T03:48:34.555Z,99546.41
2023-02-11T03:51:06.868Z,99540.19
2023-02-11T03:53:35.664Z,99541.03
2023-02-11T03:56:07.223Z,99531.13
2023-02-11T03:58:35.884Z,99509.66
2023-02-11T04:01:05.528Z,99501.59
2023-02-11T04:03:34.443Z,99499.75
2023-02-11T04:06:04.680Z,99489.00
2023-02-11T04:08:33.648Z,99487.19
2023-02-11T04:11:02.341Z,99480.94
2023-02-11T04:13:31.529Z,99485.47
2023-02-11T04:16:00.289Z,99474.72
2023-02-11T04:18:29.270Z,99459.47
2023-02-11T04:20:58.236Z,99468.53
2023-02-11T04:23:28.289Z,99472.03
2023-02-11T04:25:57.032Z,99471.19
2023-02-11T04:28:27.006Z,99455.09
2023-02-11T04:30:55.883Z,99464.81
2023-02-11T04:33:24.836Z,99461.31
2023-02-11T04:35:53.452Z,99471.91
2023-02-11T04:38:24.234Z,99464.00
2023-02-11T04:40:54.171Z,99470.19
2023-02-11T04:43:22.953Z,99478.25
2023-02-11T04:45:52.143Z,99480.09
2023-02-11T04:48:21.009Z,99475.56
2023-02-11T04:50:50.066Z,99472.88
2023-02-11T04:53:18.682Z,99473.06
2023-02-11T04:55:50.477Z,99471.19
2023-02-11T04:58:20.987Z,99468.53
2023-02-11T05:00:49.544Z,99467.69
2023-02-11T05:03:18.383Z,99470.19
2023-02-11T05:05:47.260Z,99466.66
2023-02-11T05:08:16.043Z,99464.81
2023-02-11T05:10:48.233Z,99457.63
2023-02-11T05:13:16.957Z,99452.25
2023-02-11T05:15:47.078Z,99450.56
2023-02-11T05:18:16.003Z,99449.72
2023-02-11T05:20:44.890Z,99449.72
2023-02-11T05:23:13.717Z,99445.19
2023-02-11T05:25:42.426Z,99447.03
2023-02-11T05:28:11.065Z,99462.13
2023-02-11T05:30:39.783Z,99456.78
2023-02-11T05:33:09.763Z,99478.25
2023-02-11T05:35:38.294Z,99460.47
2023-02-11T05:38:06.870Z,99467.50
2023-02-11T05:40:35.470Z,99463.16
2023-02-11T05:43:04.031Z,99464.81
2023-02-11T05:45:33.148Z,99461.31
2023-02-11T05:48:01.719Z,99467.50
2023-02-11T05:50:31.729Z,99454.25
2023-02-11T05:53:00.470Z,99446.03
2023-02-11T05:55:29.294Z,99417.47
2023-02-11T05:57:57.850Z,99416.47
2023-02-11T06:00:27.563Z,99412.94
2023-02-11T06:02:56.210Z,99416.66
2023-02-11T06:05:24.826Z,99433.59
2023-02-11T06:07:54.985Z,99422.84
2023-02-11T06:10:23.568Z,99421.00
2023-02-11T06:12:52.182Z,99415.63
2023-02-11T06:15:20.999Z,99416.88
2023-02-11T06:17:49.584Z,99413.50
2023-02-11T06:20:18.492Z,99409.13
2023-02-11T06:22:47.088Z,99416.47
2023-02-11T06:25:17.056Z,99417.34
2023-02-11T06:27:45.700Z,99415.94
2023-02-11T06:30:15.659Z,99414.09
2023-02-11T06:32:45.744Z,99399.53
2023-02-11T06:35:15.134Z,99393.00
2023-02-11T06:37:44.047Z,99386.41
2023-02-11T06:40:13.116Z,99381.16
2023-02-11T06:42:43.160Z,99381.31
2023-02-11T06:45:13.432Z,99383.84
2023-02-11T06:47:42.298Z,99377.78
2023-02-11T06:50:14.397Z,99394.59
2023-02-11T06:52:42.966Z,99399.28
2023-02-11T06:55:12.004Z,99401.25
2023-02-11T06:57:41.927Z,99407.78
2023-02-11T07:00:12.559Z,99402.53
2023-02-11T07:02:41.276Z,99385.88
2023-02-11T07:05:11.182Z,99389.47
2023-02-11T07:07:39.939Z,99385.91
2023-02-11T07:10:09.520Z,99399.44
2023-02-11T07:12:38.068Z,99392.38
2023-02-11T07:15:09.430Z,99394.78
2023-02-11T07:17:38.180Z,99392.25
2023-02-11T07:20:07.732Z,99385.03
2023-02-11T07:22:36.407Z,99383.63
2023-02-11T07:25:05.717Z,99385.63
2023-02-11T07:27:34.716Z,99394.38
2023-02-11T07:30:06.903Z,99389.00
2023-02-11T07:32:37.510Z,99394.53
2023-02-11T07:35:07.217Z,99394.66
2023-02-11T07:37:36.168Z,99386.91
2023-02-11T07:40:05.369Z,99377.16
2023-02-11T07:42:35.680Z,99379.56
2023-02-11T07:45:04.446Z,99379.56
2023-02-11T07:47:33.179Z,99374.91
2023-02-11T07:50:03.275Z,99372.22
2023-02-11T07:52:32.094Z,99370.66
2023-02-11T07:55:02.146Z,99371.50
2023-02-11T07:57:32.342Z,99371.50
2023-02-11T08:00:00.896Z,99370.78
2023-02-11T08:02:32.023Z,99357.66
2023-02-11T08:05:02.185Z,99356.38
2023-02-11T08:07:31.090Z,99353.69
2023-02-11T08:09:59.779Z,99356.22
2023-02-11T08:12:28.849Z,99357.91
2023-02-11T08:14:57.621Z,99349.00
2023-02-11T08:17:26.412Z,99357.06
2023-02-11T08:19:55.238Z,99368.81
2023-02-11T08:22:25.352Z,99359.75
2023-02-11T08:24:54.037Z,99371.50
2023-02-11T08:27:22.753Z,99380.41
2023-02-11T08:29:51.536Z,99387.44
2023-02-11T08:32:20.420Z,99382.53
2023-02-11T08:34:52.274Z,99373.47
2023-02-11T08:37:21.107Z,99366.44
2023-02-11T08:39:51.278Z,99353.97
2023-02-11T08:42:19.829Z,99354.97
2023-02-11T08:44:48.505Z,99356.00
2023-02-11T08:47:17.263Z,99365.72
2023-02-11T08:49:45.963Z,99363.59
2023-02-11T08:52:14.725Z,99366.28
2023-02-11T08:54:43.640Z,99377.41
2023-02-11T08:57:13.852Z,99369.22
2023-02-11T08:59:42.563Z,99358.47
2023-02-11T09:02:13.976Z,99354.16
2023-02-11T09:04:42.755Z,99361.34
2023-02-11T09:07:12.677Z,99358.50
2023-02-11T09:09:41.351Z,99376.28
2023-02-11T09:12:09.992Z,99394.25
2023-02-11T09:14:41.615Z,99386.34
2023-02-11T09:17:10.441Z,99386.78
2023-02-11T09:19:39.176Z,99387.06
2023-02-11T09:22:07.929Z,99379.59
2023-02-11T09:24:36.453Z,99381.97
2023-02-11T09:27:05.530Z,99390.72
2023-02-11T09:29:34.122Z,99384.50
2023-02-11T09:32:04.405Z,99389.31
2023-02-11T09:34:33.249Z,99383.13
2023-02-11T09:37:01.940Z,99394.81
2023-02-11T09:39:30.808Z,99387.78
2023-02-11T09:42:35.541Z,99409.13
2023-02-11T09:45:04.953Z,99395.97
2023-02-11T09:47:36.048Z,99393.84
2023-02-11T09:50:07.028Z,99391.31
2023-02-11T09:52:40.383Z,99393.00
2023-02-11T09:55:18.796Z,99392.13
2023-02-11T09:57:47.725Z,99386.09
2023-02-11T10:00:25.420Z,99373.22
2023-02-11T10:03:33.492Z,99370.41
2023-02-11T10:06:24.548Z,99375.78
2023-02-11T10:09:02.154Z,99368.16
2023-02-11T10:11:37.102Z,99365.31
2023-02-11T10:14:17.525Z,99358.13
2023-02-11T10:16:57.357Z,99360.22
2023-02-11T10:19:44.410Z,99361.50
2023-02-11T10:22:18.431Z,99339.88
2023-02-11T10:24:52.886Z,99327.00
2023-02-11T10:27:22.943Z,99316.97
2023-02-11T10:29:54.447Z,99310.47
2023-02-11T10:32:32.373Z,99301.25
2023-02-11T10:35:05.583Z,99284.97
2023-02-11T10:37:34.587Z,99274.94
2023-02-11T10:40:03.270Z,99264.91
2023-02-11T10:42:32.116Z,99257.69
2023-02-11T10:45:02.457Z,99226.16
2023-02-11T10:47:34.671Z,99210.91
2023-02-11T10:50:19.536Z,99214.72
2023-02-11T10:52:48.465Z,99207.38
2023-02-11T10:55:20.862Z,99199.00
2023-02-11T10:57:56.838Z,99204.22
2023-02-11T11:00:34.236Z,99210.41
2023-02-11T11:03:03.610Z,99200.69
2023-02-11T11:05:37.360Z,99209.44
2023-02-11T11:08:07.601Z,99234.44
2023-02-11T11:10:43.407Z,99230.22
2023-02-11T11:13:30.602Z,99234.44
2023-02-11T11:16:17.611Z,99232.78
2023-02-11T11:18:47.562Z,99222.88
2023-02-11T11:21:22.571Z,99230.09
2023-02-11T11:23:58.554Z,99226.38
2023-02-11T11:26:28.624Z,99220.88
2023-02-11T11:29:02.643Z,99220.88
2023-02-11T11:31:34.463Z,99222.69
2023-02-11T11:34:23.803Z,99217.31
2023-02-11T11:36:53.888Z,99226.25
2023-02-11T11:39:25.811Z,99224.41
2023-02-11T11:41:56.958Z,99216.47
2023-02-11T11:44:33.614Z,99220.88
2023-02-11T11:47:35.143Z,99203.75
2023-02-11T11:50:24.740Z,99207.28
2023-02-11T11:53:00.260Z,99218.88
2023-02-11T11:55:32.399Z,99217.06
2023-02-11T11:58:01.068Z,99222.41
2023-02-11T12:00:34.230Z,99225.09
2023-02-11T12:03:51.703Z,99221.56
2023-02-11T12:06:32.051Z,99228.78
2023-02-11T12:09:11.087Z,99232.28
2023-02-11T12:11:54.065Z,99226.09
2023-02-11T12:14:28.429Z,99224.22
2023-02-11T12:17:01.849Z,99248.28
2023-02-11T12:19:59.209Z,99250.97
2023-02-11T12:22:42.161Z,99245.59
2023-02-11T12:25:27.371Z,99241.22
2023-02-11T12:28:04.854Z,99249.09
2023-02-11T12:30:55.560Z,99239.38
2023-02-11T12:33:36.342Z,99237.53
2023-02-11T12:36:09.228Z,99246.44
2023-02-11T12:38:52.222Z,99228.31
2023-02-11T12:42:08.268Z,99222.94
2023-02-11T12:44:53.785Z,99212.19
2023-02-11T12:47:27.040Z,99188.03
2023-02-11T12:50:09.937Z,99163.03
2023-02-11T12:53:09.543Z,99157.66
2023-02-11T12:55:40.078Z,99146.06
2023-02-11T12:58:14.860Z,99137.00
2023-02-11T13:00:47.774Z,99141.53
2023-02-11T13:03:20.649Z,99141.53
2023-02-11T13:05:51.725Z,99151.28
2023-02-11T13:08:25.372Z,99162.00
2023-02-11T13:10:56.122Z,99169.22
2023-02-11T13:13:29.044Z,99179.97
2023-02-11T13:16:02.410Z,99154.78
2023-02-11T13:18:53.596Z,99142.38
2023-02-11T13:21:49.427Z,99141.53
2023-02-11T13:24:26.593Z,99144.88
2023-02-11T13:27:02.747Z,99142.19
2023-02-11T13:29:37.922Z,99136.81
2023-02-11T13:32:12.418Z,99127.09
2023-02-11T13:34:58.453Z,99119.03
2023-02-11T13:37:28.537Z,99094.88
2023-02-11T13:40:02.049Z,99050.34
2023-02-11T13:42:31.029Z,99055.59
2023-02-11T13:45:01.191Z,99065.31
2023-02-11T13:47:32.519Z,99065.19
2023-02-11T13:50:01.895Z,99073.38
2023-02-11T13:52:32.352Z,99066.16
2023-02-11T13:55:06.641Z,99069.69
2023-02-11T13:57:37.978Z,99077.91
2023-02-11T14:00:48.776Z,99094.03
2023-02-11T14:03:47.100Z,99099.41
2023-02-11T14:06:39.852Z,99120.06
2023-02-11T14:09:40.039Z,99129.09
2023-02-11T14:12:39.952Z,99129.25
2023-02-11T14:15:28.175Z,99105.91
2023-02-11T14:17:56.982Z,99110.59
2023-02-11T14:20:44.707Z,99126.56
2023-02-11T14:23:28.482Z,99140.00
2023-02-11T14:26:06.469Z,99155.94
2023-02-11T14:28:36.416Z,99156.94
2023-02-11T14:31:10.226Z,99149.91
2023-02-11T14:34:09.383Z,99144.53
2023-02-11T14:37:12.022Z,99146.22
2023-02-11T14:39:53.150Z,99147.88
2023-02-11T14:42:23.023Z,99149.72
2023-02-11T14:44:51.818Z,99151.44
2023-02-11T14:47:25.419Z,99150.56
2023-02-11T14:49:54.526Z,99146.06
2023-02-11T14:52:28.533Z,99145.06
2023-02-11T14:55:07.592Z,99124.59
2023-02-11T14:57:37.933Z,99136.16
2023-02-11T15:00:17.933Z,99136.16
2023-02-11T15:02:48.294Z,99144.22
2023-02-11T15:05:20.473Z,99145.19
2023-02-11T15:07:50.555Z,99153.25
2023-02-11T15:10:22.991Z,99153.13
2023-02-11T15:12:51.755Z,99151.44
2023-02-11T15:15:21.423Z,99161.31
2023-02-11T15:17:51.426Z,99166.69
2023-02-11T15:20:23.824Z,99156.63
2023-02-11T15:22:56.934Z,99169.38
2023-02-11T15:25:27.339Z,99178.31
2023-02-11T15:27:57.718Z,99177.44
2023-02-11T15:30:30.450Z,99178.31
2023-02-11T15:33:02.942Z,99177.44
2023-02-11T15:35:33.100Z,99178.13
2023-02-11T15:38:01.853Z,99183.66
2023-02-11T15:40:33.199Z,99189.03
2023-02-11T15:43:03.079Z,99196.09
2023-02-11T15:45:32.855Z,99188.56
2023-02-11T15:48:09.496Z,99175.13
2023-02-11T15:50:40.560Z,99184.03
2023-02-11T15:53:25.284Z,99186.88
2023-02-11T15:55:56.112Z,99193.09
2023-02-11T15:58:24.706Z,99185.03
2023-02-11T16:00:59.687Z,99198.31
2023-02-11T16:03:32.967Z,99206.22
2023-02-11T16:06:18.127Z,99213.44
2023-02-11T16:08:59.291Z,99209.22
2023-02-11T16:11:31.177Z,99207.38
2023-02-11T16:14:00.957Z,99208.19
2023-02-11T16:16:31.406Z,99196.31
2023-02-11T16:19:05.402Z,99204.38
2023-02-11T16:21:39.256Z,99205.25
2023-02-11T16:24:09.318Z,99200.69
2023-02-11T16:26:40.986Z,99194.63
2023-02-11T16:29:13.795Z,99197.84
2023-02-11T16:31:43.546Z,99202.38
2023-02-11T16:34:18.645Z,99205.06
2023-02-11T16:36:47.352Z,99203.38
2023-02-11T16:39:16.895Z,99207.75
2023-02-11T16:41:45.666Z,99212.16
2023-02-11T16:44:14.279Z,99210.44
2023-02-11T16:46:43.893Z,99226.56
2023-02-11T16:49:16.926Z,99220.47
2023-02-11T16:51:47.069Z,99225.00
2023-02-11T16:54:16.692Z,99212.44
2023-02-11T16:56:45.474Z,99227.56
2023-02-11T16:59:14.376Z,99214.13
2023-02-11T17:01:43.677Z,99228.53
2023-02-11T17:04:15.704Z,99226.72
2023-02-11T17:06:46.214Z,99230.25
2023-02-11T17:09:18.963Z,99232.09
2023-02-11T17:11:47.637Z,99230.25
2023-02-11T17:14:16.357Z,99230.25
2023-02-11T17:16:45.349Z,99219.50
2023-02-11T17:19:15.996Z,99232.94
2023-02-11T17:21:46.163Z,99230.25
2023-02-11T17:24:15.401Z,99225.72
2023-02-11T17:26:44.165Z,99247.22
2023-02-11T17:29:14.778Z,99244.53
2023-02-11T17:31:43.594Z,99241.00
2023-02-11T17:34:12.392Z,99241.97
2023-02-11T17:36:54.512Z,99237.47
2023-02-11T17:39:31.141Z,99233.25
2023-02-11T17:42:06.697Z,99231.22
2023-02-11T17:44:35.782Z,99226.72
2023-02-11T17:47:04.713Z,99233.91
2023-02-11T17:49:33.459Z,99241.00
2023-02-11T17:52:02.999Z,99246.38
2023-02-11T17:54:33.112Z,99222.19
2023-02-11T17:57:01.804Z,99239.16
2023-02-11T17:59:35.434Z,99239.00
2023-02-11T18:02:04.464Z,99236.47
2023-02-11T18:04:33.657Z,99239.00
2023-02-11T18:07:02.273Z,99244.38
2023-02-11T18:09:32.359Z,99236.31
2023-02-11T18:12:01.014Z,99248.88
2023-02-11T18:14:29.753Z,99239.00
2023-02-11T18:16:59.766Z,99244.38
2023-02-11T18:19:30.854Z,99249.75
2023-02-11T18:22:01.063Z,99241.38
2023-02-11T18:24:30.222Z,99243.06
2023-02-11T18:27:00.448Z,99240.53
2023-02-11T18:29:29.778Z,99247.06
2023-02-11T18:31:58.935Z,99249.75
2023-02-11T18:34:27.655Z,99251.44
2023-02-11T18:36:56.449Z,99255.97
2023-02-11T18:39:26.542Z,99258.47
2023-02-11T18:41:58.957Z,99254.50
2023-02-11T18:44:29.271Z,99261.56
2023-02-11T18:46:58.018Z,99259.56
2023-02-11T18:49:26.609Z,99267.78
2023-02-11T18:51:55.249Z,99261.56
2023-02-11T18:54:24.012Z,99265.25
2023-02-11T18:56:52.712Z,99262.72
2023-02-11T18:59:21.317Z,99268.91
2023-02-11T19:01:51.983Z,99276.00
2023-02-11T19:04:20.707Z,99273.44
2023-02-11T19:06:50.033Z,99266.41
2023-02-11T19:09:20.181Z,99276.97
2023-02-11T19:11:49.966Z,99272.63
2023-02-11T19:14:25.180Z,99272.63
2023-02-11T19:16:56.746Z,99277.84
2023-02-11T19:19:28.046Z,99280.69
2023-02-11T19:21:56.853Z,99289.44
2023-02-11T19:24:25.913Z,99285.75
2023-02-11T19:29:24.919Z,99294.41
2023-02-11T19:31:55.116Z,99298.13
2023-02-11T19:34:24.157Z,99295.56
2023-02-11T19:36:54.218Z,99301.63
2023-02-11T19:39:24.925Z,99293.28
2023-02-11T19:41:53.606Z,99297.81
2023-02-11T19:44:22.591Z,99293.28
2023-02-11T19:46:53.598Z,99303.19
2023-02-11T19:49:26.017Z,99289.75
2023-02-11T19:51:55.529Z,99299.78
2023-02-11T19:54:26.436Z,99298.66
2023-02-11T19:59:23.697Z,99295.78
2023-02-11T20:01:53.948Z,99311.06
2023-02-11T20:04:25.240Z,99308.25
2023-02-11T20:06:53.905Z,99308.25
2023-02-11T20:09:23.030Z,99307.53
2023-02-11T20:11:51.703Z,99307.53
2023-02-11T20:14:20.470Z,99306.53
2023-02-11T20:16:50.223Z,99302.03
2023-02-11T20:19:21.758Z,99309.09
2023-02-11T20:21:53.921Z,99304.84
2023-02-11T20:24:22.947Z,99308.38
2023-02-11T20:26:55.598Z,99304.03
2023-02-11T20:29:25.144Z,99305.88
2023-02-11T20:31:54.742Z,99308.56
2023-02-11T20:34:24.996Z,99316.63
2023-02-11T20:36:54.997Z,99321.97
2023-02-11T20:39:23.962Z,99314.91
2023-02-11T20:41:53.381Z,99317.91
2023-02-11T20:44:22.895Z,99320.88
2023-02-11T20:46:51.838Z,99319.34
2023-02-11T20:49:21.746Z,99318.91
2023-02-11T20:51:51.297Z,99316.31
2023-02-11T20:54:21.778Z,99323.91
2023-02-11T20:56:51.212Z,99324.38
2023-02-11T20:59:21.113Z,99326.88
2023-02-11T21:01:50.922Z,99326.75
2023-02-11T21:04:21.271Z,99333.13
2023-02-11T21:06:52.232Z,99333.25
2023-02-11T21:09:24.528Z,99334.81
2023-02-11T21:11:53.185Z,99334.81
2023-02-11T21:14:22.993Z,99341.84
2023-02-11T21:16:52.349Z,99331.09
2023-02-11T21:19:21.307Z,99344.41
2023-02-11T21:21:50.140Z,99347.94
2023-02-11T21:24:18.954Z,99345.25
2023-02-11T21:26:48.938Z,99351.47
2023-02-11T21:29:17.587Z,99351.47
2023-02-11T21:31:46.319Z,99345.25
2023-02-11T21:34:16.339Z,99348.94
2023-02-11T21:36:45.852Z,99356.84
2023-02-11T21:39:14.911Z,99356.00
2023-02-11T21:41:43.581Z,99370.44
2023-02-11T21:44:13.621Z,99373.13
2023-02-11T21:46:42.260Z,99375.81
2023-02-11T21:49:11.088Z,99384.00
2023-02-11T21:51:40.384Z,99400.13
2023-02-11T21:54:09.189Z,99391.22
2023-02-11T21:56:37.774Z,99391.22
2023-02-11T21:59:06.421Z,99397.63
2023-02-11T22:01:36.926Z,99396.75
2023-02-11T22:04:05.748Z,99397.63
2023-02-11T22:06:35.409Z,99393.06
2023-02-11T22:09:04.294Z,99392.25
2023-02-11T22:11:33.074Z,99394.91
2023-02-11T22:14:01.697Z,99399.44
2023-02-11T22:16:31.296Z,99401.28
2023-02-11T22:19:02.460Z,99411.03
2023-02-11T22:21:31.310Z,99408.34
2023-02-11T22:24:00.124Z,99409.19
2023-02-11T22:26:29.170Z,99411.19
2023-02-11T22:28:57.835Z,99416.56
2023-02-11T22:31:27.992Z,99413.88
2023-02-11T22:33:56.778Z,99426.59
2023-02-11T22:36:28.361Z,99425.75
2023-02-11T22:38:57.176Z,99431.25
2023-02-11T22:41:25.937Z,99435.66
2023-02-11T22:43:54.504Z,99437.03
2023-02-11T22:46:23.385Z,99442.56
2023-02-11T22:48:51.975Z,99440.88
2023-02-11T22:51:22.350Z,99436.38
2023-02-11T22:53:53.350Z,99447.13
2023-02-11T22:56:22.192Z,99448.94
2023-02-11T22:58:51.187Z,99452.50
2023-02-11T23:01:20.145Z,99456.00
2023-02-11T23:03:48.856Z,99465.06
2023-02-11T23:06:18.344Z,99467.72
2023-02-11T23:08:47.001Z,99462.38
2023-02-11T23:11:18.476Z,99462.38
2023-02-11T23:13:48.145Z,99456.16
2023-02-11T23:16:18.993Z,99462.38
2023-02-11T23:18:48.776Z,99458.84
2023-02-11T23:21:19.178Z,99472.28
2023-02-11T23:23:47.752Z,99463.38
2023-02-11T23:26:19.059Z,99461.53
2023-02-11T23:28:48.095Z,99461.53
2023-02-11T23:31:18.619Z,99471.44
2023-02-11T23:33:48.156Z,99480.50
2023-02-11T23:37:18.924Z,99484.88
2023-02-11T23:39:47.908Z,99470.59
2023-02-11T23:42:17.856Z,99478.66
2023-02-11T23:44:46.518Z,99475.97
2023-02-11T23:47:15.176Z,99479.50
2023-02-11T23:49:43.917Z,99474.97
2023-02-11T23:52:12.474Z,99470.59
2023-02-11T23:54:43.439Z,99477.81
2023-02-11T23:57:12.163Z,99476.94
2023-02-11T23:59:43.205Z,99475.97
